createdAt,value
2019-05-09T00:01:09.026Z,6.50
2019-05-09T00:02:30.323Z,5.80
2019-05-09T00:03:51.634Z,6.00
2019-05-09T00:05:13.930Z,5.60
2019-05-09T00:06:34.726Z,5.30
2019-05-09T00:07:56.516Z,6.20
2019-05-09T00:09:18.306Z,5.90
2019-05-09T00:10:42.071Z,6.40
2019-05-09T00:12:03.523Z,6.60
2019-05-09T00:13:23.735Z,5.90
2019-05-09T00:14:44.462Z,6.20
2019-05-09T00:16:05.752Z,7.00
2019-05-09T00:17:27.059Z,9.00
2019-05-09T00:18:48.399Z,8.10
2019-05-09T00:20:10.184Z,6.80
2019-05-09T00:21:33.249Z,8.30
2019-05-09T00:22:53.935Z,6.70
2019-05-09T00:24:14.077Z,7.20
2019-05-09T00:25:35.346Z,7.20
2019-05-09T00:26:56.635Z,7.40
2019-05-09T00:28:17.921Z,6.60
2019-05-09T00:29:39.221Z,6.90
2019-05-09T00:31:00.511Z,7.40
2019-05-09T00:32:23.896Z,6.70
2019-05-09T00:33:47.956Z,7.30
2019-05-09T00:35:05.846Z,6.20
2019-05-09T00:36:27.130Z,7.20
2019-05-09T00:37:48.420Z,6.80
2019-05-09T00:39:10.198Z,6.20
2019-05-09T00:40:31.477Z,7.00
2019-05-09T00:41:53.903Z,6.40
2019-05-09T00:43:14.528Z,6.60
2019-05-09T00:44:36.304Z,6.90
2019-05-09T00:45:57.585Z,6.70
2019-05-09T00:47:18.868Z,6.70
2019-05-09T00:48:40.149Z,8.10
2019-05-09T00:50:01.922Z,7.60
2019-05-09T00:51:23.693Z,8.10
2019-05-09T00:52:44.973Z,9.00
2019-05-09T00:54:06.259Z,8.40
2019-05-09T00:55:27.549Z,7.20
2019-05-09T00:56:48.825Z,6.50
2019-05-09T00:58:10.615Z,7.10
2019-05-09T00:59:33.286Z,6.30
2019-05-09T01:00:53.670Z,8.10
2019-05-09T01:02:15.445Z,7.40
2019-05-09T01:03:37.220Z,8.40
2019-05-09T01:04:58.514Z,8.50
2019-05-09T01:06:20.290Z,7.10
2019-05-09T01:07:43.117Z,7.70
2019-05-09T01:09:04.333Z,6.60
2019-05-09T01:10:25.628Z,7.70
2019-05-09T01:11:46.922Z,6.70
2019-05-09T01:13:08.692Z,8.00
2019-05-09T01:14:30.471Z,7.70
2019-05-09T01:15:53.290Z,6.30
2019-05-09T01:17:13.747Z,6.10
2019-05-09T01:18:34.312Z,7.50
2019-05-09T01:19:55.595Z,6.70
2019-05-09T01:21:17.368Z,5.70
2019-05-09T01:22:39.141Z,6.70
2019-05-09T01:24:03.180Z,6.80
2019-05-09T01:25:24.005Z,7.90
2019-05-09T01:26:43.948Z,7.20
2019-05-09T01:28:05.710Z,6.80
2019-05-09T01:29:27.183Z,7.70
2019-05-09T01:30:48.455Z,6.60
2019-05-09T01:32:11.211Z,5.50
2019-05-09T01:33:33.330Z,8.70
2019-05-09T01:34:54.266Z,7.50
2019-05-09T01:36:15.541Z,8.20
2019-05-09T01:37:37.311Z,7.30
2019-05-09T01:38:59.075Z,7.10
2019-05-09T01:40:21.140Z,7.10
2019-05-09T01:41:43.641Z,7.00
2019-05-09T01:43:04.578Z,7.90
2019-05-09T01:44:25.450Z,7.20
2019-05-09T01:45:47.179Z,9.30
2019-05-09T01:47:08.482Z,7.30
2019-05-09T01:48:29.743Z,9.00
2019-05-09T01:49:51.022Z,7.50
2019-05-09T01:51:13.866Z,8.40
2019-05-09T01:52:33.795Z,8.40
2019-05-09T01:53:55.325Z,8.70
2019-05-09T01:55:16.600Z,7.90
2019-05-09T01:56:37.878Z,8.10
2019-05-09T01:57:59.652Z,9.10
2019-05-09T01:59:20.929Z,8.30
2019-05-09T02:00:43.558Z,7.50
2019-05-09T02:02:08.824Z,8.60
2019-05-09T02:03:26.033Z,7.60
2019-05-09T02:04:47.316Z,7.40
2019-05-09T02:06:09.075Z,7.80
2019-05-09T02:07:30.347Z,7.80
2019-05-09T02:08:51.612Z,7.10
2019-05-09T02:10:13.934Z,7.30
2019-05-09T02:11:42.326Z,7.90
2019-05-09T02:12:56.421Z,6.50
2019-05-09T02:14:18.198Z,6.30
2019-05-09T02:15:39.477Z,8.20
2019-05-09T02:17:03.095Z,7.50
2019-05-09T02:18:23.101Z,7.10
2019-05-09T02:19:43.952Z,8.90
2019-05-09T02:21:05.072Z,8.60
2019-05-09T02:22:26.350Z,8.30
2019-05-09T02:23:47.630Z,7.70
2019-05-09T02:25:09.408Z,11.70
2019-05-09T02:26:33.335Z,8.10
2019-05-09T02:27:52.459Z,9.40
2019-05-09T02:29:14.237Z,8.80
2019-05-09T02:30:36.245Z,8.50
2019-05-09T02:31:57.779Z,8.40
2019-05-09T02:33:19.052Z,7.70
2019-05-09T02:34:40.324Z,8.10
2019-05-09T02:36:02.305Z,8.50
2019-05-09T02:37:23.391Z,9.70
2019-05-09T02:38:44.667Z,7.00
2019-05-09T02:40:09.211Z,10.70
2019-05-09T02:41:28.683Z,9.40
2019-05-09T02:42:49.109Z,9.10
2019-05-09T02:44:09.756Z,9.50
2019-05-09T02:45:31.024Z,9.70
2019-05-09T02:46:52.298Z,8.50
2019-05-09T02:48:13.562Z,8.80
2019-05-09T02:49:35.313Z,8.10
2019-05-09T02:51:00.276Z,10.20
2019-05-09T02:52:19.719Z,7.40
2019-05-09T02:53:40.591Z,9.20
2019-05-09T02:55:01.866Z,8.40
2019-05-09T02:56:23.132Z,7.60
2019-05-09T02:57:44.397Z,8.60
2019-05-09T02:59:05.661Z,7.50
2019-05-09T03:00:28.778Z,8.50
2019-05-09T03:01:49.538Z,7.50
2019-05-09T03:03:10.470Z,9.30
2019-05-09T03:04:31.731Z,8.60
2019-05-09T03:05:53.488Z,8.60
2019-05-09T03:07:14.753Z,8.40
2019-05-09T03:08:38.360Z,8.00
2019-05-09T03:09:58.418Z,8.80
2019-05-09T03:11:20.043Z,8.90
2019-05-09T03:12:41.805Z,8.20
2019-05-09T03:14:03.559Z,9.70
2019-05-09T03:15:25.331Z,8.20
2019-05-09T03:16:49.190Z,6.40
2019-05-09T03:18:08.907Z,6.40
2019-05-09T03:19:30.073Z,8.90
2019-05-09T03:20:50.896Z,7.70
2019-05-09T03:22:12.658Z,7.60
2019-05-09T03:23:33.919Z,5.50
2019-05-09T03:24:55.190Z,7.90
2019-05-09T03:26:19.376Z,7.50
2019-05-09T03:27:39.102Z,7.50
2019-05-09T03:28:59.534Z,7.60
2019-05-09T03:30:21.204Z,8.20
2019-05-09T03:31:42.512Z,7.80
2019-05-09T03:33:04.265Z,8.20
2019-05-09T03:34:25.526Z,8.30
2019-05-09T03:35:48.185Z,7.40
2019-05-09T03:37:08.582Z,7.60
2019-05-09T03:38:29.312Z,8.60
2019-05-09T03:39:51.065Z,8.10
2019-05-09T03:41:12.328Z,8.20
2019-05-09T03:42:41.090Z,7.50
2019-05-09T03:43:55.840Z,8.70
2019-05-09T03:45:18.231Z,10.60
2019-05-09T03:46:39.848Z,9.40
2019-05-09T03:48:01.598Z,8.50
2019-05-09T03:49:23.051Z,6.70
2019-05-09T03:50:44.817Z,7.60
2019-05-09T03:52:07.565Z,8.90
2019-05-09T03:53:27.698Z,6.80
2019-05-09T03:54:48.814Z,7.80
2019-05-09T03:56:10.574Z,8.90
2019-05-09T03:57:32.326Z,8.70
2019-05-09T03:58:53.590Z,7.80
2019-05-09T04:00:14.860Z,8.20
2019-05-09T04:01:38.192Z,6.90
2019-05-09T04:02:58.169Z,7.20
2019-05-09T04:04:19.689Z,7.10
2019-05-09T04:05:55.139Z,7.30
2019-05-09T04:07:02.190Z,8.00
2019-05-09T04:08:23.443Z,8.40
2019-05-09T04:09:44.716Z,7.10
2019-05-09T04:11:08.391Z,6.50
2019-05-09T04:12:28.323Z,8.80
2019-05-09T04:13:48.537Z,5.70
2019-05-09T04:15:10.293Z,6.80
2019-05-09T04:16:32.079Z,6.30
2019-05-09T04:17:53.842Z,7.40
2019-05-09T04:19:17.369Z,6.20
2019-05-09T04:20:37.768Z,6.90
2019-05-09T04:21:57.795Z,7.60
2019-05-09T04:23:20.425Z,5.90
2019-05-09T04:24:42.205Z,7.00
2019-05-09T04:26:03.980Z,5.10
2019-05-09T04:27:29.515Z,5.40
2019-05-09T04:28:47.519Z,4.50
2019-05-09T04:30:09.414Z,4.80
2019-05-09T04:31:30.098Z,4.90
2019-05-09T04:32:51.895Z,4.10
2019-05-09T04:34:13.172Z,5.50
2019-05-09T04:35:34.942Z,4.50
2019-05-09T04:36:57.597Z,5.80
2019-05-09T04:38:18.061Z,3.30
2019-05-09T04:39:40.673Z,4.90
2019-05-09T04:41:00.587Z,5.40
2019-05-09T04:42:23.361Z,5.30
2019-05-09T04:43:44.649Z,5.00
2019-05-09T04:45:09.986Z,6.60
2019-05-09T04:46:27.786Z,5.40
2019-05-09T04:47:48.999Z,4.80
2019-05-09T04:49:10.793Z,5.30
2019-05-09T04:50:32.073Z,4.90
2019-05-09T04:51:53.359Z,5.80
2019-05-09T04:53:14.667Z,4.50
2019-05-09T04:54:38.445Z,4.70
2019-05-09T04:55:58.130Z,5.80
2019-05-09T04:57:19.037Z,4.80
2019-05-09T04:58:40.326Z,4.90
2019-05-09T05:00:02.104Z,5.30
2019-05-09T05:01:23.890Z,4.70
2019-05-09T05:02:45.185Z,5.60
2019-05-09T05:04:07.762Z,4.80
2019-05-09T05:05:31.759Z,5.30
2019-05-09T05:06:53.055Z,5.30
2019-05-09T05:08:14.872Z,6.10
2019-05-09T05:09:37.910Z,5.80
2019-05-09T05:10:58.468Z,5.90
2019-05-09T05:12:20.278Z,5.00
2019-05-09T05:13:41.591Z,5.60
2019-05-09T05:15:03.399Z,5.00
2019-05-09T05:16:24.695Z,6.80
2019-05-09T05:17:47.738Z,6.60
2019-05-09T05:19:07.575Z,4.40
2019-05-09T05:20:30.111Z,5.50
2019-05-09T05:21:51.917Z,3.30
2019-05-09T05:23:13.237Z,4.60
2019-05-09T05:24:35.054Z,3.90
2019-05-09T05:25:57.985Z,4.40
2019-05-09T05:27:18.981Z,4.80
2019-05-09T05:28:40.018Z,5.00
2019-05-09T05:30:01.345Z,5.50
2019-05-09T05:31:22.674Z,3.60
2019-05-09T05:32:44.006Z,4.60
2019-05-09T05:34:08.163Z,3.80
2019-05-09T05:35:28.442Z,4.00
2019-05-09T05:36:49.479Z,4.50
2019-05-09T05:38:10.811Z,3.50
2019-05-09T05:39:33.630Z,5.20
2019-05-09T05:40:57.863Z,4.50
2019-05-09T05:42:17.636Z,4.70
2019-05-09T05:43:44.164Z,3.80
2019-05-09T05:44:59.980Z,4.30
2019-05-09T05:46:21.302Z,5.20
2019-05-09T05:47:42.623Z,5.20
2019-05-09T05:49:04.441Z,5.40
2019-05-09T05:50:28.081Z,6.50
2019-05-09T05:51:48.188Z,7.10
2019-05-09T05:53:09.875Z,4.90
2019-05-09T05:54:31.211Z,6.10
2019-05-09T05:55:52.879Z,5.40
2019-05-09T05:57:13.864Z,6.50
2019-05-09T05:58:35.195Z,5.30
2019-05-09T05:59:58.517Z,5.30
2019-05-09T06:01:18.924Z,5.70
2019-05-09T06:02:40.140Z,5.80
2019-05-09T06:04:01.466Z,4.90
2019-05-09T06:05:22.791Z,6.40
2019-05-09T06:06:44.125Z,6.10
2019-05-09T06:08:08.015Z,6.30
2019-05-09T06:09:28.025Z,4.70
2019-05-09T06:10:48.811Z,4.70
2019-05-09T06:12:10.650Z,5.80
2019-05-09T06:13:32.490Z,6.00
2019-05-09T06:14:54.642Z,6.10
2019-05-09T06:16:18.251Z,6.00
2019-05-09T06:17:38.056Z,4.60
2019-05-09T06:18:58.833Z,5.90
2019-05-09T06:20:20.486Z,5.50
2019-05-09T06:21:42.322Z,6.70
2019-05-09T06:23:03.675Z,6.10
2019-05-09T06:24:25.022Z,6.40
2019-05-09T06:25:48.416Z,5.00
2019-05-09T06:27:10.348Z,5.70
2019-05-09T06:28:29.534Z,5.70
2019-05-09T06:29:50.879Z,6.90
2019-05-09T06:31:12.228Z,6.30
2019-05-09T06:32:34.073Z,6.10
2019-05-09T06:33:57.743Z,5.40
2019-05-09T06:35:17.639Z,5.40
2019-05-09T06:36:39.070Z,5.10
2019-05-09T06:37:59.984Z,5.00
2019-05-09T06:39:21.677Z,4.00
2019-05-09T06:40:43.524Z,3.40
2019-05-09T06:42:05.677Z,4.20
2019-05-09T06:43:28.987Z,3.90
2019-05-09T06:44:48.941Z,3.30
2019-05-09T06:46:10.319Z,3.10
2019-05-09T06:47:31.698Z,3.80
2019-05-09T06:48:53.077Z,3.60
2019-05-09T06:50:14.470Z,3.90
2019-05-09T06:51:38.545Z,4.00
2019-05-09T06:52:57.737Z,3.50
2019-05-09T06:54:19.110Z,3.90
2019-05-09T06:55:40.994Z,2.50
2019-05-09T06:57:02.404Z,3.60
2019-05-09T06:58:23.790Z,4.30
2019-05-09T06:59:45.668Z,3.10
2019-05-09T07:01:07.708Z,3.10
2019-05-09T07:02:28.528Z,2.40
2019-05-09T07:03:49.857Z,2.80
2019-05-09T07:05:11.261Z,2.80
2019-05-09T07:06:33.180Z,2.80
2019-05-09T07:07:55.077Z,3.00
2019-05-09T07:09:17.476Z,2.80
2019-05-09T07:10:37.902Z,3.10
2019-05-09T07:11:59.322Z,2.30
2019-05-09T07:13:21.245Z,3.20
2019-05-09T07:14:42.665Z,2.90
2019-05-09T07:16:04.092Z,3.10
2019-05-09T07:17:31.902Z,2.50
2019-05-09T07:18:48.560Z,3.30
2019-05-09T07:20:09.871Z,2.30
2019-05-09T07:21:31.306Z,3.80
2019-05-09T07:22:53.219Z,2.80
2019-05-09T07:24:15.126Z,2.50
2019-05-09T07:25:37.795Z,2.70
2019-05-09T07:26:58.452Z,2.30
2019-05-09T07:28:19.841Z,2.60
2019-05-09T07:29:41.745Z,2.80
2019-05-09T07:31:03.653Z,3.50
2019-05-09T07:32:27.153Z,3.40
2019-05-09T07:33:47.866Z,3.10
2019-05-09T07:35:09.001Z,3.40
2019-05-09T07:36:30.247Z,1.90
2019-05-09T07:37:52.147Z,2.80
2019-05-09T07:39:17.450Z,2.20
2019-05-09T07:40:38.449Z,2.50
2019-05-09T07:41:58.514Z,2.50
2019-05-09T07:43:19.828Z,2.10
2019-05-09T07:44:48.731Z,1.70
2019-05-09T07:46:03.666Z,2.70
2019-05-09T07:47:25.627Z,3.10
2019-05-09T07:48:48.367Z,2.40
2019-05-09T07:50:08.955Z,3.10
2019-05-09T07:51:30.404Z,3.00
2019-05-09T07:52:52.287Z,2.40
2019-05-09T07:54:21.941Z,2.70
2019-05-09T07:55:37.387Z,2.20
2019-05-09T07:56:58.019Z,3.10
2019-05-09T07:58:18.896Z,2.50
2019-05-09T07:59:40.283Z,2.40
2019-05-09T08:01:02.178Z,2.40
2019-05-09T08:02:23.598Z,2.80
2019-05-09T08:03:45.501Z,2.20
2019-05-09T08:05:08.439Z,2.60
2019-05-09T08:06:28.789Z,2.40
2019-05-09T08:07:49.747Z,2.90
2019-05-09T08:09:11.162Z,3.00
2019-05-09T08:10:33.527Z,1.90
2019-05-09T08:11:54.971Z,2.10
2019-05-09T08:13:18.246Z,2.60
2019-05-09T08:14:38.618Z,3.60
2019-05-09T08:16:00.540Z,2.70
2019-05-09T08:17:21.966Z,2.70
2019-05-09T08:18:43.400Z,2.40
2019-05-09T08:20:07.752Z,2.50
2019-05-09T08:21:27.813Z,2.30
2019-05-09T08:22:57.341Z,2.30
2019-05-09T08:24:11.182Z,2.00
2019-05-09T08:25:32.638Z,2.60
2019-05-09T08:26:54.104Z,2.00
2019-05-09T08:28:17.967Z,2.30
2019-05-09T08:29:38.741Z,2.00
2019-05-09T08:30:58.973Z,2.30
2019-05-09T08:32:20.950Z,2.10
2019-05-09T08:33:42.411Z,3.00
2019-05-09T08:35:03.865Z,2.50
2019-05-09T08:36:25.329Z,2.10
2019-05-09T08:37:47.778Z,1.90
2019-05-09T08:39:08.752Z,2.20
2019-05-09T08:40:30.717Z,2.00
2019-05-09T08:41:52.691Z,2.60
2019-05-09T08:43:14.657Z,2.70
2019-05-09T08:44:38.268Z,2.10
2019-05-09T08:45:58.610Z,2.30
2019-05-09T08:47:20.120Z,2.00
2019-05-09T08:48:42.110Z,2.70
2019-05-09T08:50:04.121Z,1.80
2019-05-09T08:51:35.329Z,1.80
2019-05-09T08:52:48.319Z,1.70
2019-05-09T08:54:10.187Z,2.60
2019-05-09T08:55:31.707Z,1.90
2019-05-09T08:56:54.234Z,1.50
2019-05-09T08:58:19.267Z,1.10
2019-05-09T08:59:38.303Z,2.00
2019-05-09T09:01:03.853Z,1.20
2019-05-09T09:02:22.548Z,1.60
2019-05-09T09:03:42.813Z,2.80
2019-05-09T09:05:04.324Z,1.80
2019-05-09T09:06:27.861Z,2.30
2019-05-09T09:07:48.452Z,1.70
2019-05-09T09:09:09.808Z,1.70
2019-05-09T09:10:31.784Z,1.90
2019-05-09T09:11:53.265Z,1.60
2019-05-09T09:13:17.544Z,2.30
2019-05-09T09:14:38.597Z,1.60
2019-05-09T09:16:14.402Z,1.50
2019-05-09T09:17:22.646Z,2.80
2019-05-09T09:18:44.102Z,2.10
2019-05-09T09:20:07.711Z,2.00
2019-05-09T09:21:28.631Z,2.00
2019-05-09T09:22:49.468Z,2.30
2019-05-09T09:24:10.936Z,2.40
2019-05-09T09:25:32.422Z,2.00
2019-05-09T09:26:54.403Z,1.50
2019-05-09T09:28:18.280Z,1.70
2019-05-09T09:29:38.261Z,1.50
2019-05-09T09:30:59.426Z,1.50
2019-05-09T09:32:20.947Z,1.50
2019-05-09T09:33:42.955Z,1.40
2019-05-09T09:35:04.796Z,1.20
2019-05-09T09:36:28.093Z,1.80
2019-05-09T09:37:51.875Z,1.50
2019-05-09T09:39:09.344Z,1.50
2019-05-09T09:40:31.357Z,1.30
2019-05-09T09:41:52.883Z,1.70
2019-05-09T09:43:17.442Z,1.60
2019-05-09T09:44:38.788Z,1.60
2019-05-09T09:46:10.505Z,2.10
2019-05-09T09:47:23.309Z,1.90
2019-05-09T09:48:41.950Z,2.20
2019-05-09T09:50:04.931Z,2.20
2019-05-09T09:51:27.584Z,2.50
2019-05-09T09:52:49.239Z,2.10
2019-05-09T09:54:10.398Z,2.10
2019-05-09T09:55:31.869Z,1.80
2019-05-09T09:56:53.334Z,1.80
2019-05-09T09:58:14.801Z,2.60
2019-05-09T09:59:38.603Z,2.30
2019-05-09T10:00:58.713Z,2.10
2019-05-09T10:02:20.668Z,1.90
2019-05-09T10:03:42.140Z,2.40
2019-05-09T10:05:03.606Z,2.20
2019-05-09T10:06:25.077Z,2.00
2019-05-09T10:07:47.682Z,2.50
2019-05-09T10:09:09.437Z,2.70
2019-05-09T10:10:30.007Z,1.80
2019-05-09T10:11:52.002Z,1.80
2019-05-09T10:13:14.023Z,2.50
2019-05-09T10:14:35.523Z,2.10
2019-05-09T10:15:58.690Z,2.10
2019-05-09T10:17:21.458Z,2.20
2019-05-09T10:18:41.527Z,1.60
2019-05-09T10:20:04.037Z,2.00
2019-05-09T10:21:27.659Z,1.90
2019-05-09T10:22:58.716Z,1.80
2019-05-09T10:24:09.553Z,2.10
2019-05-09T10:25:31.179Z,1.40
2019-05-09T10:26:52.720Z,1.80
2019-05-09T10:28:14.255Z,1.70
2019-05-09T10:29:38.518Z,1.90
2019-05-09T10:30:57.908Z,1.90
2019-05-09T10:32:19.380Z,2.20
2019-05-09T10:33:42.403Z,1.80
2019-05-09T10:35:04.428Z,1.80
2019-05-09T10:36:27.821Z,1.50
2019-05-09T10:37:48.567Z,1.50
2019-05-09T10:39:10.017Z,1.90
2019-05-09T10:40:31.569Z,1.50
2019-05-09T10:41:53.100Z,1.70
2019-05-09T10:43:14.628Z,1.80
2019-05-09T10:44:37.469Z,1.50
2019-05-09T10:45:57.971Z,1.40
2019-05-09T10:47:19.746Z,1.70
2019-05-09T10:48:41.287Z,1.60
2019-05-09T10:50:03.336Z,1.50
2019-05-09T10:51:24.887Z,1.00
2019-05-09T10:52:48.207Z,1.70
2019-05-09T10:54:08.472Z,2.20
2019-05-09T10:55:30.505Z,1.50
2019-05-09T10:56:53.522Z,1.20
2019-05-09T10:58:15.539Z,2.30
2019-05-09T10:59:37.668Z,1.80
2019-05-09T11:00:59.078Z,2.00
2019-05-09T11:02:20.581Z,1.60
2019-05-09T11:03:42.587Z,1.40
2019-05-09T11:05:04.579Z,1.90
2019-05-09T11:06:28.462Z,1.30
2019-05-09T11:07:49.558Z,1.30
2019-05-09T11:09:09.541Z,1.00
2019-05-09T11:10:32.769Z,1.40
2019-05-09T11:11:53.026Z,1.30
2019-05-09T11:13:15.034Z,1.00
2019-05-09T11:14:37.603Z,1.00
2019-05-09T11:15:58.333Z,1.40
2019-05-09T11:17:21.939Z,1.40
2019-05-09T11:18:41.044Z,1.10
2019-05-09T11:20:03.056Z,1.20
2019-05-09T11:21:24.590Z,1.30
2019-05-09T11:22:46.117Z,1.20
2019-05-09T11:24:08.514Z,1.70
2019-05-09T11:25:29.672Z,0.80
2019-05-09T11:26:51.709Z,1.40
2019-05-09T11:28:15.106Z,1.70
2019-05-09T11:29:35.251Z,1.40
2019-05-09T11:30:58.404Z,1.40
2019-05-09T11:32:18.280Z,1.20
2019-05-09T11:33:40.282Z,1.00
2019-05-09T11:35:01.800Z,1.60
2019-05-09T11:36:23.791Z,1.10
2019-05-09T11:37:47.902Z,1.80
2019-05-09T11:39:10.818Z,1.30
2019-05-09T11:40:29.765Z,1.30
2019-05-09T11:41:51.757Z,1.20
2019-05-09T11:43:13.253Z,1.50
2019-05-09T11:44:34.756Z,1.20
2019-05-09T11:45:58.046Z,1.20
2019-05-09T11:47:31.943Z,1.20
2019-05-09T11:48:39.259Z,2.10
2019-05-09T11:50:00.752Z,1.40
2019-05-09T11:51:22.991Z,1.40
2019-05-09T11:52:44.263Z,1.80
2019-05-09T11:54:09.008Z,1.50
2019-05-09T11:55:35.696Z,1.60
2019-05-09T11:56:50.103Z,1.30
2019-05-09T11:58:12.128Z,1.30
2019-05-09T11:59:34.120Z,1.60
2019-05-09T12:00:56.115Z,1.00
2019-05-09T12:02:18.348Z,1.20
2019-05-09T12:03:40.104Z,0.90
2019-05-09T12:05:01.613Z,1.50
2019-05-09T12:06:23.103Z,1.20
2019-05-09T12:07:45.086Z,1.50
2019-05-09T12:09:08.729Z,1.20
2019-05-09T12:10:29.545Z,1.80
2019-05-09T12:11:51.600Z,1.20
2019-05-09T12:13:13.015Z,1.00
2019-05-09T12:14:34.988Z,1.30
2019-05-09T12:15:58.415Z,1.80
2019-05-09T12:17:19.859Z,1.10
2019-05-09T12:18:40.862Z,1.70
2019-05-09T12:20:12.397Z,1.90
2019-05-09T12:21:23.770Z,1.80
2019-05-09T12:22:45.235Z,1.40
2019-05-09T12:24:08.839Z,1.90
2019-05-09T12:25:28.472Z,2.30
2019-05-09T12:26:50.136Z,2.20
2019-05-09T12:28:11.618Z,1.60
2019-05-09T12:29:33.581Z,1.30
2019-05-09T12:30:55.044Z,2.00
2019-05-09T12:32:18.734Z,1.60
2019-05-09T12:33:38.953Z,1.90
2019-05-09T12:35:00.907Z,1.80
2019-05-09T12:36:22.867Z,1.90
2019-05-09T12:37:44.828Z,1.30
2019-05-09T12:39:08.718Z,1.60
2019-05-09T12:40:28.243Z,1.40
2019-05-09T12:41:49.710Z,1.70
2019-05-09T12:43:11.670Z,1.70
2019-05-09T12:44:33.632Z,2.40
2019-05-09T12:45:57.660Z,1.30
2019-05-09T12:47:18.972Z,1.30
2019-05-09T12:48:39.038Z,2.00
2019-05-09T12:50:02.930Z,1.80
2019-05-09T12:51:22.964Z,1.30
2019-05-09T12:52:44.933Z,1.90
2019-05-09T12:54:08.403Z,1.20
2019-05-09T12:56:50.964Z,2.20
2019-05-09T12:58:12.920Z,1.90
2019-05-09T12:59:46.508Z,2.70
2019-05-09T13:00:58.426Z,2.20
2019-05-09T13:02:18.288Z,2.80
2019-05-09T13:03:39.752Z,2.60
2019-05-09T13:05:01.234Z,2.90
2019-05-09T13:06:22.674Z,3.00
2019-05-09T13:07:44.614Z,2.40
2019-05-09T13:09:08.361Z,2.50
2019-05-09T13:10:28.466Z,2.40
2019-05-09T13:11:49.898Z,2.70
2019-05-09T13:13:11.838Z,2.60
2019-05-09T13:14:33.788Z,1.60
2019-05-09T13:15:55.211Z,2.50
2019-05-09T13:17:17.931Z,2.70
2019-05-09T13:18:39.068Z,2.10
2019-05-09T13:20:00.989Z,1.70
2019-05-09T13:21:22.425Z,2.50
2019-05-09T13:22:44.028Z,2.60
2019-05-09T13:24:08.298Z,1.60
2019-05-09T13:25:28.977Z,1.60
2019-05-09T13:26:49.915Z,1.80
2019-05-09T13:28:11.345Z,1.70
2019-05-09T13:29:34.062Z,1.70
2019-05-09T13:30:54.697Z,2.10
2019-05-09T13:32:17.991Z,1.60
2019-05-09T13:33:38.507Z,1.50
2019-05-09T13:34:58.975Z,1.80
2019-05-09T13:36:20.917Z,2.20
2019-05-09T13:37:42.863Z,2.00
2019-05-09T13:39:05.335Z,1.90
2019-05-09T13:40:29.051Z,1.70
2019-05-09T13:41:47.809Z,2.00
2019-05-09T13:43:09.123Z,2.30
2019-05-09T13:44:31.009Z,1.80
2019-05-09T13:45:52.914Z,2.30
2019-05-09T13:47:14.831Z,2.60
2019-05-09T13:48:57.271Z,2.50
2019-05-09T13:49:59.412Z,1.60
2019-05-09T13:52:42.828Z,1.70
2019-05-09T13:54:04.249Z,2.30
2019-05-09T13:55:27.500Z,1.60
2019-05-09T13:56:50.536Z,2.10
2019-05-09T13:58:08.950Z,2.90
2019-05-09T13:59:30.847Z,2.10
2019-05-09T14:00:58.940Z,2.40
2019-05-09T14:02:14.450Z,3.50
2019-05-09T14:03:38.643Z,3.90
2019-05-09T14:04:58.546Z,4.10
2019-05-09T14:06:19.646Z,3.00
2019-05-09T14:07:41.557Z,3.30
2019-05-09T14:09:03.206Z,3.90
2019-05-09T14:10:24.594Z,3.60
2019-05-09T14:11:47.935Z,4.10
2019-05-09T14:13:13.380Z,3.10
2019-05-09T14:14:29.737Z,3.20
2019-05-09T14:15:51.613Z,3.60
2019-05-09T14:17:14.014Z,3.00
2019-05-09T14:18:34.876Z,3.60
2019-05-09T14:19:56.298Z,3.30
2019-05-09T14:21:23.796Z,3.20
2019-05-09T14:22:40.522Z,2.90
2019-05-09T14:24:11.304Z,2.50
2019-05-09T14:25:24.437Z,3.10
2019-05-09T14:26:47.868Z,2.60
2019-05-09T14:28:08.591Z,2.90
2019-05-09T14:29:31.757Z,3.10
2019-05-09T14:30:52.467Z,3.20
2019-05-09T14:32:14.399Z,3.00
2019-05-09T14:33:38.804Z,2.60
2019-05-09T14:34:58.688Z,2.60
2019-05-09T14:36:19.055Z,3.00
2019-05-09T14:37:40.432Z,2.90
2019-05-09T14:39:02.312Z,3.20
2019-05-09T14:40:24.190Z,2.10
2019-05-09T14:41:47.247Z,2.60
2019-05-09T14:43:09.594Z,3.90
2019-05-09T14:44:29.346Z,2.60
2019-05-09T14:45:51.723Z,3.10
2019-05-09T14:47:13.597Z,3.60
2019-05-09T14:48:34.974Z,3.20
2019-05-09T14:49:59.298Z,2.60
2019-05-09T14:51:18.761Z,2.20
2019-05-09T14:52:40.600Z,2.90
2019-05-09T14:54:02.466Z,2.30
2019-05-09T14:55:23.847Z,2.90
2019-05-09T14:56:48.383Z,2.20
2019-05-09T14:58:07.877Z,2.40
2019-05-09T14:59:29.474Z,2.50
2019-05-09T15:00:51.340Z,2.60
2019-05-09T15:02:12.709Z,2.30
2019-05-09T15:03:34.094Z,2.30
2019-05-09T15:04:58.428Z,2.50
2019-05-09T15:06:18.353Z,2.30
2019-05-09T15:07:39.702Z,2.50
2019-05-09T15:09:01.574Z,1.90
2019-05-09T15:10:23.450Z,2.60
2019-05-09T15:11:44.819Z,4.00
2019-05-09T15:13:07.834Z,3.10
2019-05-09T15:14:28.960Z,3.80
2019-05-09T15:15:49.451Z,3.30
2019-05-09T15:17:12.162Z,3.70
2019-05-09T15:18:32.701Z,2.70
2019-05-09T15:19:59.639Z,2.80
2019-05-09T15:21:18.923Z,2.30
2019-05-09T15:22:38.759Z,4.40
2019-05-09T15:23:59.393Z,2.80
2019-05-09T15:25:21.214Z,3.10
2019-05-09T15:26:42.804Z,3.20
2019-05-09T15:28:04.696Z,2.50
2019-05-09T15:29:28.788Z,2.70
2019-05-09T15:30:48.916Z,2.90
2019-05-09T15:32:12.257Z,2.80
2019-05-09T15:33:30.759Z,3.30
2019-05-09T15:34:52.163Z,2.80
2019-05-09T15:36:14.041Z,3.40
2019-05-09T15:37:38.550Z,3.20
2019-05-09T15:38:59.194Z,3.00
2019-05-09T15:40:19.220Z,2.30
2019-05-09T15:41:40.608Z,3.00
2019-05-09T15:43:01.996Z,2.70
2019-05-09T15:44:23.889Z,2.20
2019-05-09T15:45:45.284Z,3.00
2019-05-09T15:47:07.588Z,2.30
2019-05-09T15:48:28.071Z,2.80
2019-05-09T15:49:49.967Z,2.80
2019-05-09T15:51:11.875Z,2.80
2019-05-09T15:52:33.272Z,2.80
2019-05-09T15:53:57.696Z,2.90
2019-05-09T15:55:17.850Z,3.60
2019-05-09T15:56:38.974Z,3.60
2019-05-09T15:58:00.863Z,3.10
2019-05-09T15:59:22.763Z,3.00
2019-05-09T16:00:44.171Z,3.00
2019-05-09T16:02:06.067Z,2.90
2019-05-09T16:03:27.998Z,1.90
2019-05-09T16:04:48.887Z,2.70
2019-05-09T16:06:10.799Z,2.70
2019-05-09T16:07:32.216Z,2.10
2019-05-09T16:08:54.140Z,2.20
2019-05-09T16:10:17.822Z,1.90
2019-05-09T16:11:37.849Z,2.30
2019-05-09T16:12:59.238Z,2.40
2019-05-09T16:14:20.688Z,3.00
2019-05-09T16:15:42.640Z,1.80
2019-05-09T16:17:04.102Z,2.00
2019-05-09T16:18:25.574Z,1.90
2019-05-09T16:19:48.285Z,1.60
2019-05-09T16:21:09.030Z,1.50
2019-05-09T16:22:30.998Z,1.60
2019-05-09T16:23:52.949Z,1.50
2019-05-09T16:25:14.389Z,1.40
2019-05-09T16:26:38.293Z,1.40
2019-05-09T16:27:58.626Z,1.80
2019-05-09T16:29:19.711Z,1.40
2019-05-09T16:30:41.133Z,1.20
2019-05-09T16:32:02.571Z,1.20
2019-05-09T16:33:24.489Z,1.10
2019-05-09T16:34:46.399Z,1.70
2019-05-09T16:36:07.824Z,1.50
2019-05-09T16:37:29.227Z,1.00
2019-05-09T16:38:50.638Z,1.10
2019-05-09T16:40:12.045Z,1.40
2019-05-09T16:41:33.949Z,1.30
2019-05-09T16:42:57.561Z,1.50
2019-05-09T16:44:18.327Z,1.20
2019-05-09T16:45:38.167Z,1.50
2019-05-09T16:46:59.581Z,1.60
2019-05-09T16:48:21.479Z,1.40
2019-05-09T16:49:42.893Z,1.40
2019-05-09T16:51:04.797Z,1.50
2019-05-09T16:52:26.699Z,1.50
2019-05-09T16:53:49.788Z,1.80
2019-05-09T16:55:09.511Z,2.00
2019-05-09T16:56:31.396Z,2.00
2019-05-09T16:57:52.789Z,1.50
2019-05-09T16:59:14.502Z,1.30
2019-05-09T17:00:38.024Z,1.40
2019-05-09T17:01:57.838Z,1.10
2019-05-09T17:03:18.679Z,1.50
2019-05-09T17:04:40.072Z,1.70
2019-05-09T17:06:01.956Z,2.30
2019-05-09T17:07:23.831Z,2.40
2019-05-09T17:08:47.573Z,1.20
2019-05-09T17:10:08.308Z,2.00
2019-05-09T17:11:29.486Z,1.60
2019-05-09T17:12:50.868Z,1.80
2019-05-09T17:14:12.760Z,2.10
2019-05-09T17:15:34.638Z,1.70
2019-05-09T17:16:59.645Z,2.60
2019-05-09T17:18:19.121Z,3.20
2019-05-09T17:19:39.812Z,2.10
2019-05-09T17:21:15.195Z,2.30
2019-05-09T17:22:23.102Z,1.60
2019-05-09T17:23:44.505Z,1.50
2019-05-09T17:25:07.947Z,1.70
2019-05-09T17:26:29.334Z,1.60
2019-05-09T17:27:51.252Z,1.70
2019-05-09T17:29:13.183Z,1.60
2019-05-09T17:30:35.107Z,1.80
2019-05-09T17:31:58.400Z,1.50
2019-05-09T17:33:18.019Z,1.00
2019-05-09T17:34:42.234Z,1.20
2019-05-09T17:36:02.403Z,1.40
2019-05-09T17:37:23.872Z,1.50
2019-05-09T17:38:47.664Z,1.50
2019-05-09T17:40:07.979Z,1.50
2019-05-09T17:41:29.294Z,1.60
2019-05-09T17:42:51.258Z,1.40
2019-05-09T17:44:13.221Z,1.40
2019-05-09T17:45:39.329Z,1.50
2019-05-09T17:46:57.971Z,1.40
2019-05-09T17:48:20.052Z,1.50
2019-05-09T17:49:41.502Z,1.10
2019-05-09T17:51:03.472Z,1.20
2019-05-09T17:52:25.411Z,1.20
2019-05-09T17:53:51.770Z,1.10
2019-05-09T17:55:08.302Z,1.30
2019-05-09T17:56:29.731Z,1.40
2019-05-09T17:57:51.674Z,2.70
2019-05-09T17:59:13.596Z,2.50
2019-05-09T18:00:37.775Z,2.30
2019-05-09T18:01:57.865Z,2.20
2019-05-09T18:03:19.343Z,2.00
2019-05-09T18:04:40.766Z,2.40
2019-05-09T18:06:02.188Z,2.00
2019-05-09T18:07:23.601Z,2.30
2019-05-09T18:08:45.008Z,2.70
2019-05-09T18:10:07.699Z,2.70